Time;durP1;ratioP1;P1;durP2;ratioP2;P2;SDS_P1;SDS_P2;PMS_P1;PMS_P2;Temp;Humidity;BMP_temperature;BMP_pressure;BME280_temperature;BME280_humidity;BME280_pressure;Samples;Min_cycle;Max_cycle;Signal;HPM_P1;HPM_P2
2022/04/28 00:03:55;;;;;;;0.00;0.00;;;;;;;5.61;70.25;102871.34;10584661;28;20440;-79
2022/04/28 00:08:57;;;;;;;0.00;0.00;;;;;;;5.70;69.22;102872.94;10583954;28;20055;-78
2022/04/28 00:13:59;;;;;;;0.10;0.10;;;;;;;5.52;70.56;102882.63;10582691;28;20044;-79
2022/04/28 00:19:02;;;;;;;0.00;0.00;;;;;;;5.44;70.25;102883.69;10584090;28;20075;-79
2022/04/28 00:24:04;;;;;;;0.00;0.00;;;;;;;5.03;71.60;102874.53;10583690;28;20043;-78
2022/04/28 00:29:06;;;;;;;0.00;0.00;;;;;;;5.15;72.09;102881.41;10583941;28;20416;-79
2022/04/28 00:34:12;;;;;;;0.17;0.17;;;;;;;5.07;72.28;102881.69;10565738;28;20091;-79
2022/04/28 00:39:14;;;;;;;0.00;0.00;;;;;;;4.97;72.17;102879.13;10582553;28;20040;-79
2022/04/28 00:44:16;;;;;;;0.00;0.00;;;;;;;4.82;74.13;102883.00;10582849;28;20096;-79
2022/04/28 00:54:37;;;;;;;0.00;0.00;;;;;;;5.02;72.28;102880.44;10581470;28;20051;-78
2022/04/28 00:59:40;;;;;;;0.00;0.00;;;;;;;4.95;72.54;102890.91;10564387;28;20044;-78
2022/04/28 01:04:42;;;;;;;0.10;0.10;;;;;;;4.60;72.83;102897.50;10578364;28;20562;-78
2022/04/28 01:09:43;;;;;;;0.00;0.00;;;;;;;4.48;73.46;102900.69;10581707;28;20082;-79
2022/04/28 01:14:51;;;;;;;0.00;0.00;;;;;;;4.72;72.41;102899.25;10574977;28;20498;-78
2022/04/28 01:19:55;;;;;;;0.00;0.00;;;;;;;4.56;72.99;102904.75;10580515;28;20048;-79
2022/04/28 01:25:04;;;;;;;0.00;0.00;;;;;;;4.51;73.58;102906.03;10564081;28;20047;-79
2022/04/28 01:30:17;;;;;;;0.00;0.00;;;;;;;4.09;74.65;102903.47;10579536;28;20052;-79
2022/04/28 01:35:25;;;;;;;0.00;0.00;;;;;;;3.80;75.04;102893.31;10563348;28;20051;-79
2022/04/28 01:40:28;;;;;;;0.75;0.55;;;;;;;3.99;75.49;102892.34;10562225;28;20067;-78
2022/04/28 01:45:32;;;;;;;0.00;0.00;;;;;;;4.35;74.46;102897.13;10578826;28;20055;-79
2022/04/28 01:56:15;;;;;;;0.00;0.00;;;;;;;4.06;76.07;102895.53;10578814;28;20052;-78
2022/04/28 02:01:29;;;;;;;0.10;0.10;;;;;;;4.17;75.80;102898.13;10536155;28;20106;-79
2022/04/28 02:06:31;;;;;;;0.10;0.10;;;;;;;4.31;75.92;102901.84;10561267;28;20039;-79
2022/04/28 02:11:33;;;;;;;0.00;0.00;;;;;;;4.29;75.42;102906.78;10560612;28;20749;-78
2022/04/28 02:17:07;;;;;;;0.00;0.00;;;;;;;4.33;75.80;102901.19;10518478;28;20082;-78
2022/04/28 02:22:10;;;;;;;0.43;0.43;;;;;;;4.25;76.08;102908.19;10539700;28;20058;-78
2022/04/28 02:27:13;;;;;;;0.40;0.40;;;;;;;4.31;76.35;102912.03;10543330;28;20132;-77
2022/04/28 02:32:15;;;;;;;0.00;0.00;;;;;;;4.28;75.85;102905.03;10576778;28;20051;-78
2022/04/28 02:37:17;;;;;;;0.00;0.00;;;;;;;4.39;75.25;102911.91;10576333;28;20048;-78
2022/04/28 02:42:18;;;;;;;0.00;0.00;;;;;;;4.19;76.35;102922.97;10540644;28;20505;-78
2022/04/28 02:47:20;;;;;;;0.38;0.28;;;;;;;4.03;77.61;102920.81;10519363;28;20510;-75
2022/04/28 02:52:22;;;;;;;0.00;0.00;;;;;;;3.89;77.64;102916.19;10505832;28;20067;-76
2022/04/28 02:57:25;;;;;;;0.10;0.10;;;;;;;3.93;78.04;102913.13;10522468;28;20471;-75
2022/04/28 03:02:27;;;;;;;0.00;0.00;;;;;;;3.99;77.27;102916.19;10523831;28;20403;-75
2022/04/28 03:12:52;;;;;;;0.32;0.32;;;;;;;3.81;77.44;102916.41;10540187;28;20040;-75
2022/04/28 03:18:03;;;;;;;1.02;0.68;;;;;;;3.94;77.99;102910.72;10538678;28;20040;-75
2022/04/28 03:23:07;;;;;;;0.00;0.00;;;;;;;3.95;77.91;102906.50;10545434;28;20047;-75
2022/04/28 03:28:10;;;;;;;0.00;0.00;;;;;;;4.05;77.25;102915.81;10581880;28;20098;-75
2022/04/28 03:33:15;;;;;;;0.00;0.00;;;;;;;4.08;76.28;102924.63;10583685;28;20048;-76
2022/04/28 03:38:17;;;;;;;0.00;0.00;;;;;;;4.02;76.76;102924.13;10590252;27;20062;-76
2022/04/28 03:43:19;;;;;;;0.00;0.00;;;;;;;4.01;77.41;102922.31;10589020;28;20405;-75
2022/04/28 03:48:22;;;;;;;0.52;0.52;;;;;;;3.69;78.10;102924.66;10571673;28;20046;-76
2022/04/28 03:53:24;;;;;;;0.00;0.00;;;;;;;3.79;78.08;102920.50;10588572;28;20048;-75
2022/04/28 03:58:26;;;;;;;0.00;0.00;;;;;;;3.91;77.60;102918.09;10588047;28;20044;-76
2022/04/28 04:03:28;;;;;;;0.10;0.10;;;;;;;3.70;77.92;102917.13;10571192;28;20070;-76
2022/04/28 04:08:29;;;;;;;0.00;0.00;;;;;;;3.60;78.81;102927.31;10570837;28;20051;-76
2022/04/28 04:13:45;;;;;;;0.00;0.00;;;;;;;3.47;78.73;102923.69;10571322;28;20047;-75
2022/04/28 04:18:47;;;;;;;0.00;0.00;;;;;;;3.65;78.33;102926.06;10570535;28;20040;-76
2022/04/28 04:23:57;;;;;;;0.63;0.50;;;;;;;3.26;78.26;102930.34;10571780;28;20043;-76
2022/04/28 04:29:00;;;;;;;0.00;0.00;;;;;;;3.12;79.55;102939.31;10570473;28;20063;-75
2022/04/28 04:34:30;;;;;;;0.00;0.00;;;;;;;3.45;79.46;102937.97;10560220;28;20047;-76
2022/04/28 04:39:32;;;;;;;0.00;0.00;;;;;;;3.40;78.95;102949.38;10569461;28;20047;-75
2022/04/28 04:44:34;;;;;;;1.52;0.73;;;;;;;3.44;79.41;102946.38;10568234;28;20044;-75
2022/04/28 04:49:37;;;;;;;0.00;0.00;;;;;;;3.63;79.34;102960.69;10569258;28;20063;-75
2022/04/28 04:54:50;;;;;;;0.88;0.60;;;;;;;3.85;78.82;102965.13;10569250;28;20056;-76
2022/04/28 04:59:51;;;;;;;0.00;0.00;;;;;;;4.13;78.25;102964.16;10568669;28;20039;-76
2022/04/28 05:04:54;;;;;;;0.88;0.13;;;;;;;4.11;77.88;102964.81;10569369;28;20054;-76
2022/04/28 05:10:14;;;;;;;0.57;0.57;;;;;;;4.28;77.72;102973.94;10568494;28;20039;-75
2022/04/28 05:15:16;;;;;;;0.20;0.20;;;;;;;4.53;76.44;102986.19;10568163;28;20047;-75
2022/04/28 05:20:32;;;;;;;0.15;0.15;;;;;;;4.85;75.69;102985.44;10568880;28;20039;-76
2022/04/28 05:25:53;;;;;;;0.00;0.00;;;;;;;5.12;75.10;102991.00;10585748;28;20510;-76
2022/04/28 05:31:14;;;;;;;3.97;1.87;;;;;;;5.17;73.82;102995.75;10586482;28;20043;-75
2022/04/28 05:36:34;;;;;;;0.10;0.10;;;;;;;5.63;74.02;102997.66;10571191;28;20047;-76
2022/04/28 05:41:36;;;;;;;0.10;0.10;;;;;;;5.96;71.58;102999.44;10550243;28;20706;-76
2022/04/28 05:46:37;;;;;;;0.80;0.55;;;;;;;6.04;70.79;102997.50;10567443;28;20048;-75
2022/04/28 05:51:40;;;;;;;24.92;1.17;;;;;;;6.19;71.68;102997.81;10567177;28;20073;-74
2022/04/28 05:56:45;;;;;;;0.10;0.10;;;;;;;6.48;70.78;103005.16;10567152;28;20047;-74
2022/04/28 06:01:47;;;;;;;0.55;0.45;;;;;;;6.38;70.36;103000.13;10566081;28;20040;-74
2022/04/28 06:06:55;;;;;;;0.10;0.10;;;;;;;6.77;68.94;103003.94;10550641;28;20039;-76
2022/04/28 06:12:04;;;;;;;0.00;0.00;;;;;;;7.08;68.58;103002.78;10524789;28;20044;-75
2022/04/28 06:17:25;;;;;;;0.00;0.00;;;;;;;7.21;67.46;103002.88;10541538;28;20052;-75
2022/04/28 06:22:27;;;;;;;0.00;0.00;;;;;;;7.39;68.09;102999.91;10523221;28;20040;-75
2022/04/28 06:27:30;;;;;;;34.85;0.98;;;;;;;7.59;68.05;103004.78;10539951;28;20530;-76
2022/04/28 06:32:32;;;;;;;0.10;0.10;;;;;;;7.84;65.89;103016.81;10556802;28;20055;-75
2022/04/28 06:37:53;;;;;;;0.70;0.60;;;;;;;7.97;65.80;103027.94;10556220;28;20467;-75
2022/04/28 06:42:56;;;;;;;0.00;0.00;;;;;;;8.17;65.53;103027.66;10556607;28;20075;-76
2022/04/28 06:47:57;;;;;;;0.00;0.00;;;;;;;8.63;65.61;103036.78;10541294;28;20048;-75
2022/04/28 06:53:14;;;;;;;2.25;0.65;;;;;;;8.59;63.23;103033.13;10541384;28;20051;-75
2022/04/28 06:58:21;;;;;;;1.63;0.95;;;;;;;8.88;61.81;103041.91;10555944;28;20063;-74
2022/04/28 07:03:23;;;;;;;0.00;0.00;;;;;;;9.49;60.68;103042.47;10539045;28;20101;-75
2022/04/28 07:08:30;;;;;;;0.65;0.30;;;;;;;9.55;62.41;103043.69;10538282;28;20052;-74
2022/04/28 07:13:32;;;;;;;0.25;0.20;;;;;;;10.16;58.26;103044.09;10555602;28;20078;-75
2022/04/28 07:18:36;;;;;;;1.00;0.57;;;;;;;10.41;59.48;103054.25;10540115;28;20052;-75
2022/04/28 07:23:39;;;;;;;0.10;0.10;;;;;;;10.48;55.88;103056.41;10555731;28;20466;-76
2022/04/28 07:28:44;;;;;;;0.20;0.20;;;;;;;10.73;57.21;103057.91;10536288;28;20040;-75
2022/04/28 07:34:04;;;;;;;0.00;0.00;;;;;;;11.03;55.82;103052.78;10546294;28;20394;-74
2022/04/28 07:39:21;;;;;;;0.08;0.08;;;;;;;11.42;53.52;103058.47;10551066;28;20133;-76
2022/04/28 07:45:18;;;;;;;1.20;0.87;;;;;;;10.37;54.54;103066.84;10536480;28;20059;-75
2022/04/28 07:50:21;;;;;;;0.43;0.28;;;;;;;10.73;54.73;103060.47;10536076;28;20040;-74
2022/04/28 07:55:23;;;;;;;0.00;0.00;;;;;;;12.21;50.17;103060.22;10536643;28;20051;-75
2022/04/28 08:00:29;;;;;;;1.17;1.08;;;;;;;12.01;49.59;103072.09;10535392;28;20078;-75
2022/04/28 08:05:32;;;;;;;2.25;0.70;;;;;;;12.26;49.82;103070.81;10519353;28;20052;-74
2022/04/28 08:10:34;;;;;;;3.33;1.13;;;;;;;11.87;50.08;103073.00;10519865;28;20047;-75
2022/04/28 08:15:36;;;;;;;0.45;0.30;;;;;;;12.72;47.93;103074.06;10502721;28;20048;-75
2022/04/28 08:20:42;;;;;;;0.00;0.00;;;;;;;13.03;50.62;103073.91;10540409;28;20070;-74
2022/04/28 08:25:47;;;;;;;0.00;0.00;;;;;;;13.95;45.28;103074.97;10530911;28;20503;-75
2022/04/28 08:30:49;;;;;;;2.65;0.55;;;;;;;12.77;48.46;103080.38;10540110;28;20039;-75
2022/04/28 08:35:52;;;;;;;0.40;0.30;;;;;;;14.24;47.01;103072.84;10549815;28;20040;-76
2022/04/28 08:41:02;;;;;;;0.05;0.03;;;;;;;13.67;45.92;103077.03;10565355;28;20077;-75
2022/04/28 08:51:54;;;;;;;0.28;0.10;;;;;;;12.92;52.53;103083.72;10547319;28;20036;-75
2022/04/28 08:56:58;;;;;;;2.22;1.42;;;;;;;12.49;47.78;103091.81;10559082;28;20051;-76
2022/04/28 09:02:03;;;;;;;0.98;0.88;;;;;;;13.38;48.87;103085.19;10551133;28;20101;-75
2022/04/28 09:07:33;;;;;;;0.30;0.30;;;;;;;12.77;48.27;103094.19;10554448;28;20044;-75
2022/04/28 09:12:55;;;;;;;0.00;0.00;;;;;;;13.10;48.65;103088.97;10562180;28;20044;-74
2022/04/28 09:18:10;;;;;;;0.00;0.00;;;;;;;14.38;44.30;103080.34;10525869;28;20146;-76
2022/04/28 09:23:13;;;;;;;0.00;0.00;;;;;;;15.89;43.33;103074.53;10555922;28;20036;-79
2022/04/28 09:28:19;;;;;;;1.15;0.45;;;;;;;13.67;46.24;103080.53;10543993;28;20051;-79
2022/04/28 09:33:24;;;;;;;0.00;0.00;;;;;;;14.79;42.93;103068.31;10551705;28;20047;-81
2022/04/28 09:38:34;;;;;;;3.78;0.98;;;;;;;13.57;47.41;103068.84;10553180;28;20058;-79
2022/04/28 09:43:43;;;;;;;0.00;0.00;;;;;;;15.85;44.15;103063.13;10548211;28;20135;-78
2022/04/28 09:48:49;;;;;;;0.50;0.35;;;;;;;14.74;44.58;103065.53;10539238;28;20043;-80
2022/04/28 09:54:13;;;;;;;0.05;0.05;;;;;;;15.74;43.09;103072.19;10555771;28;20031;-78
2022/04/28 09:59:23;;;;;;;2.83;1.17;;;;;;;14.44;44.91;103072.81;10547464;28;20062;-80
2022/04/28 10:04:27;;;;;;;1.35;0.90;;;;;;;13.83;45.37;103069.19;10562903;28;20052;-80
2022/04/28 10:09:49;;;;;;;0.40;0.40;;;;;;;14.67;50.85;103060.03;10520722;28;20055;-80
2022/04/28 10:14:54;;;;;;;0.30;0.30;;;;;;;14.11;46.85;103054.94;10533540;28;20426;-80
2022/04/28 10:20:05;;;;;;;0.00;0.00;;;;;;;15.78;45.66;103048.97;10532314;28;20075;-80
2022/04/28 10:36:21;;;;;;;0.00;0.00;;;;;;;16.24;42.25;103049.84;10533782;28;20390;-79
2022/04/28 10:41:28;;;;;;;0.20;0.13;;;;;;;15.88;42.11;103051.97;10539117;28;20048;-79
2022/04/28 10:46:31;;;;;;;1.08;0.70;;;;;;;14.22;46.03;103047.66;10549185;28;20449;-79
2022/04/28 10:51:33;;;;;;;0.20;0.20;;;;;;;16.69;42.81;103041.03;10533875;28;20548;-80
2022/04/28 10:56:44;;;;;;;3.47;0.88;;;;;;;14.29;44.18;103047.13;10533767;28;20044;-80
2022/04/28 11:01:45;;;;;;;0.60;0.43;;;;;;;14.96;45.88;103039.63;10565657;28;20119;-80
2022/04/28 11:06:56;;;;;;;1.45;0.57;;;;;;;15.35;46.14;103045.56;10565580;28;20093;-80
2022/04/28 11:12:11;;;;;;;0.08;0.08;;;;;;;16.64;41.50;103043.47;10565668;28;20039;-79
2022/04/28 11:17:15;;;;;;;1.70;0.93;;;;;;;15.01;44.74;103038.09;10567315;28;20115;-80
2022/04/28 11:22:17;;;;;;;0.30;0.28;;;;;;;16.28;42.70;103038.75;10554967;28;20540;-79
2022/04/28 11:27:20;;;;;;;0.45;0.28;;;;;;;14.80;44.00;103031.19;10569106;28;20093;-80
2022/04/28 11:32:57;;;;;;;1.88;1.00;;;;;;;15.53;42.79;103032.41;10543244;28;20047;-79
2022/04/28 11:37:59;;;;;;;1.23;0.65;;;;;;;15.00;43.96;103033.75;10571664;28;20055;-80
2022/04/28 11:43:04;;;;;;;0.00;0.00;;;;;;;16.57;41.74;103022.41;10554869;28;20036;-78
2022/04/28 11:48:06;;;;;;;0.10;0.10;;;;;;;15.90;48.46;103024.31;10539994;28;20399;-80
2022/04/28 11:53:12;;;;;;;0.88;0.63;;;;;;;14.70;44.61;103026.44;10564473;28;20048;-80
2022/04/28 11:58:15;;;;;;;3.88;1.95;;;;;;;14.75;46.03;103019.72;10572843;28;20055;-80
2022/04/28 12:03:30;;;;;;;0.00;0.00;;;;;;;16.75;41.30;103012.63;10557704;28;20039;-78
2022/04/28 12:08:33;;;;;;;0.32;0.20;;;;;;;15.75;42.59;103011.59;10568741;28;20511;-78
2022/04/28 12:19:19;;;;;;;2.00;0.85;;;;;;;15.90;43.66;103013.94;10571165;28;20052;-80
2022/04/28 12:24:28;;;;;;;2.70;1.52;;;;;;;15.48;42.06;103026.16;10563675;28;20063;-80
2022/04/28 12:29:30;;;;;;;0.00;0.00;;;;;;;16.56;40.09;103024.09;10572191;28;20039;-79
2022/04/28 12:34:31;;;;;;;1.75;0.77;;;;;;;16.55;42.19;103026.66;10571946;28;20071;-79
2022/04/28 12:39:54;;;;;;;1.65;0.88;;;;;;;15.71;43.54;103014.06;10555270;28;20530;-80
2022/04/28 12:45:00;;;;;;;2.30;1.05;;;;;;;15.42;43.28;103019.81;10570931;28;20461;-80
2022/04/28 12:50:18;;;;;;;1.08;0.55;;;;;;;15.68;41.74;103013.06;10570680;28;20043;-79
2022/04/28 12:55:21;;;;;;;0.00;0.00;;;;;;;17.37;44.17;102996.41;10564194;28;20043;-79
2022/04/28 13:00:23;;;;;;;4.05;2.13;;;;;;;15.90;41.98;103003.53;10553256;28;20479;-79
2022/04/28 13:05:27;;;;;;;2.15;1.13;;;;;;;15.55;44.95;102999.59;10536814;28;20130;-79
2022/04/28 13:10:36;;;;;;;0.65;0.47;;;;;;;16.60;44.18;102988.66;10522409;28;20064;-79
2022/04/28 13:15:42;;;;;;;4.93;1.48;;;;;;;15.54;43.67;102995.22;10535306;28;20574;-80
2022/04/28 13:20:43;;;;;;;0.28;0.20;;;;;;;15.69;44.08;102981.94;10565062;28;20047;-80
2022/04/28 13:25:45;;;;;;;0.00;0.00;;;;;;;15.96;43.64;102973.44;10566561;28;20047;-81
2022/04/28 13:30:49;;;;;;;3.40;0.57;;;;;;;16.06;44.06;102974.66;10570414;28;20043;-78
2022/04/28 13:35:50;;;;;;;0.00;0.00;;;;;;;16.48;41.66;102963.09;10563278;28;20050;-78
2022/04/28 13:40:52;;;;;;;0.00;0.00;;;;;;;16.49;44.26;102954.47;10568214;28;20071;-78
2022/04/28 13:45:54;;;;;;;0.20;0.20;;;;;;;16.35;42.17;102961.78;10550476;28;20043;-79
2022/04/28 13:50:55;;;;;;;0.00;0.00;;;;;;;17.00;40.31;102943.16;10562613;28;20093;-79
2022/04/28 13:56:04;;;;;;;0.93;0.68;;;;;;;16.39;39.81;102941.97;10568195;28;20380;-79
2022/04/28 14:01:06;;;;;;;0.40;0.40;;;;;;;15.77;40.31;102951.03;10568518;28;20039;-80
2022/04/28 14:06:11;;;;;;;0.00;0.00;;;;;;;16.60;39.49;102936.63;10554332;28;20043;-78
2022/04/28 14:11:13;;;;;;;0.00;0.00;;;;;;;16.50;40.21;102927.63;10561946;28;20040;-78
2022/04/28 14:16:14;;;;;;;0.00;0.00;;;;;;;16.37;43.32;102934.13;10569849;28;20051;-79
2022/04/28 14:21:16;;;;;;;0.00;0.00;;;;;;;16.54;42.44;102913.88;10550793;28;20136;-78
2022/04/28 14:26:18;;;;;;;0.00;0.00;;;;;;;16.96;41.53;102907.44;10563319;28;20062;-78
2022/04/28 14:31:20;;;;;;;0.35;0.10;;;;;;;16.35;40.47;102909.75;10545445;28;20451;-79
2022/04/28 14:36:41;;;;;;;0.00;0.00;;;;;;;16.57;43.20;102894.91;10562868;28;20048;-79
2022/04/28 14:41:43;;;;;;;1.75;0.85;;;;;;;16.80;42.17;102896.50;10560724;28;20032;-78
2022/04/28 14:46:59;;;;;;;0.00;0.00;;;;;;;16.35;42.62;102899.38;10555695;28;20044;-74
2022/04/28 14:57:31;;;;;;;0.00;0.00;;;;;;;17.11;39.42;102889.69;10528370;28;20071;-75
2022/04/28 15:02:33;;;;;;;0.43;0.43;;;;;;;16.29;44.69;102896.56;10546722;28;20044;-73
2022/04/28 15:07:35;;;;;;;0.00;0.00;;;;;;;16.59;41.29;102888.00;10539791;28;20047;-74
2022/04/28 15:12:37;;;;;;;0.30;0.30;;;;;;;16.29;42.59;102901.75;10528934;28;20058;-74
2022/04/28 15:17:44;;;;;;;0.47;0.13;;;;;;;16.24;42.55;102893.78;10542888;28;20080;-75
2022/04/28 15:22:46;;;;;;;0.68;0.68;;;;;;;16.97;42.85;102896.19;10538068;28;20124;-74
2022/04/28 15:27:47;;;;;;;0.00;0.00;;;;;;;17.34;40.42;102894.72;10537839;28;20067;-75
2022/04/28 15:32:49;;;;;;;0.10;0.10;;;;;;;16.40;44.03;102892.63;10529228;28;20073;-74
2022/04/28 15:37:51;;;;;;;0.00;0.00;;;;;;;16.76;41.50;102886.84;10546924;28;20048;-74
2022/04/28 15:42:52;;;;;;;0.13;0.13;;;;;;;16.24;41.01;102890.31;10528336;28;20052;-74
2022/04/28 15:47:54;;;;;;;0.13;0.10;;;;;;;17.07;41.51;102880.03;10545921;28;20070;-74
2022/04/28 15:52:56;;;;;;;0.00;0.00;;;;;;;17.03;42.13;102879.88;10568906;28;20035;-74
2022/04/28 15:57:57;;;;;;;0.73;0.68;;;;;;;16.61;44.74;102881.16;10582895;28;20047;-73
2022/04/28 16:03:00;;;;;;;0.00;0.00;;;;;;;16.56;42.74;102880.13;10556390;28;20048;-74
2022/04/28 16:08:03;;;;;;;5.40;0.50;;;;;;;16.10;41.55;102890.75;10577522;28;20049;-73
2022/04/28 16:13:06;;;;;;;0.63;0.57;;;;;;;16.11;43.24;102886.41;10570417;28;20047;-73
2022/04/28 16:18:07;;;;;;;0.00;0.00;;;;;;;16.35;41.15;102886.34;10570479;28;20487;-73
2022/04/28 16:24:08;;;;;;;0.00;0.00;;;;;;;16.23;42.51;102886.84;10563105;28;20040;-74
2022/04/28 16:29:09;;;;;;;27.08;2.80;;;;;;;16.20;42.18;102884.13;10556574;28;20113;-73
2022/04/28 16:34:49;;;;;;;0.00;0.00;;;;;;;16.27;40.08;102877.44;10544413;28;20078;-73
2022/04/28 16:39:55;;;;;;;0.00;0.00;;;;;;;16.08;40.13;102884.59;10543499;28;20044;-72
2022/04/28 16:44:57;;;;;;;0.00;0.00;;;;;;;16.22;43.08;102885.06;10541411;28;20048;-73
2022/04/28 16:49:59;;;;;;;0.10;0.10;;;;;;;15.99;41.09;102884.25;10545164;28;20101;-73
2022/04/28 16:55:01;;;;;;;1.45;0.43;;;;;;;15.66;43.35;102882.22;10543502;28;20040;-72
2022/04/28 17:00:59;;;;;;;1.88;1.13;;;;;;;15.54;42.13;102891.31;10544070;28;20051;-73
2022/04/28 17:06:01;;;;;;;0.00;0.00;;;;;;;15.80;42.21;102896.59;10543499;28;20055;-74
2022/04/28 17:11:02;;;;;;;0.03;0.03;;;;;;;15.64;43.57;102899.44;10541702;28;20067;-74
2022/04/28 17:16:07;;;;;;;0.00;0.00;;;;;;;15.55;43.96;102887.88;10538442;28;20044;-73
2022/04/28 17:21:09;;;;;;;0.05;0.05;;;;;;;15.34;45.18;102880.16;10537285;28;20497;-74
2022/04/28 17:26:10;;;;;;;0.00;0.00;;;;;;;15.35;44.92;102870.69;10537151;28;20068;-74
2022/04/28 17:31:12;;;;;;;0.40;0.40;;;;;;;14.90;46.20;102875.03;10535871;28;20097;-74
2022/04/28 17:36:15;;;;;;;0.00;0.00;;;;;;;14.94;46.49;102867.34;10535302;28;20119;-73
2022/04/28 17:41:17;;;;;;;1.40;0.88;;;;;;;14.65;47.00;102872.25;10536086;28;20071;-74
2022/04/28 17:46:19;;;;;;;0.00;0.00;;;;;;;14.66;47.72;102869.75;10536432;28;20048;-73
2022/04/28 17:51:21;;;;;;;0.20;0.20;;;;;;;14.48;47.60;102885.44;10535496;28;20350;-73
2022/04/28 18:01:47;;;;;;;0.22;0.22;;;;;;;14.21;47.84;102880.84;10535359;28;20574;-73
2022/04/28 18:06:49;;;;;;;0.00;0.00;;;;;;;14.02;50.18;102883.47;10541370;28;20399;-77
2022/04/28 18:11:51;;;;;;;0.75;0.70;;;;;;;14.05;48.82;102901.72;10561262;28;20088;-77
2022/04/28 18:16:53;;;;;;;2.17;1.48;;;;;;;13.93;49.48;102904.66;10542165;28;20044;-77
2022/04/28 18:21:58;;;;;;;0.03;0.03;;;;;;;13.66;51.01;102905.22;10525752;28;20036;-77
2022/04/28 18:27:03;;;;;;;0.00;0.00;;;;;;;13.51;51.31;102905.41;10568263;28;20040;-78
2022/04/28 18:32:12;;;;;;;0.00;0.00;;;;;;;13.33;51.60;102910.56;10559613;28;20052;-77
2022/04/28 18:47:54;;;;;;;0.90;0.30;;;;;;;12.94;52.71;102915.66;10566663;28;19927;-76
2022/04/28 18:53:00;;;;;;;3.10;1.73;;;;;;;12.75;53.89;102934.56;10547767;28;20064;-77
2022/04/28 18:58:04;;;;;;;0.03;0.03;;;;;;;12.33;55.92;102942.81;10544320;28;20047;-77
2022/04/28 19:03:06;;;;;;;0.00;0.00;;;;;;;12.38;55.91;102949.09;10550747;28;20059;-77
2022/04/28 19:08:14;;;;;;;0.03;0.03;;;;;;;12.03;57.84;102946.44;10554277;28;20136;-77
2022/04/28 19:13:15;;;;;;;0.00;0.00;;;;;;;11.96;57.73;102959.81;10533352;28;20044;-77
2022/04/28 19:18:20;;;;;;;0.45;0.38;;;;;;;11.86;58.25;102962.72;10533604;28;20044;-77
2022/04/28 19:23:23;;;;;;;0.17;0.17;;;;;;;11.67;59.16;102956.56;10527033;28;20044;-77
2022/04/28 19:28:26;;;;;;;0.20;0.20;;;;;;;11.53;59.70;102962.66;10534314;28;20388;-77
2022/04/28 19:33:28;;;;;;;0.00;0.00;;;;;;;11.47;59.89;102964.91;10533219;28;20097;-77
2022/04/28 19:38:30;;;;;;;0.22;0.22;;;;;;;11.29;60.82;102972.50;10538938;28;20047;-76
2022/04/28 19:43:34;;;;;;;0.35;0.35;;;;;;;11.23;60.69;102970.47;10566752;28;20040;-77
2022/04/28 19:48:39;;;;;;;3.33;1.65;;;;;;;11.12;60.86;102985.34;10538343;28;20052;-76
2022/04/28 19:53:43;;;;;;;0.00;0.00;;;;;;;11.04;61.39;102982.34;10548398;28;20410;-76
2022/04/28 19:58:45;;;;;;;0.00;0.00;;;;;;;10.93;61.73;102998.88;10570402;28;20115;-76
2022/04/28 20:03:54;;;;;;;0.30;0.28;;;;;;;10.71;62.46;102987.31;10544158;28;20044;-77
2022/04/28 20:08:59;;;;;;;0.00;0.00;;;;;;;10.63;62.69;102988.53;10546255;28;20064;-77
2022/04/28 20:14:01;;;;;;;0.30;0.10;;;;;;;10.59;62.68;102991.75;10531985;28;20690;-77
2022/04/28 20:19:02;;;;;;;0.00;0.00;;;;;;;10.47;63.19;102987.63;10543100;28;20085;-76
2022/04/28 20:24:08;;;;;;;0.00;0.00;;;;;;;10.41;63.71;103000.13;10564842;28;20036;-78
2022/04/28 20:29:13;;;;;;;0.82;0.40;;;;;;;10.32;63.59;102990.16;10554980;28;20067;-77
2022/04/28 20:34:15;;;;;;;1.70;1.08;;;;;;;10.20;64.30;102991.97;10521740;28;20483;-76
2022/04/28 20:39:17;;;;;;;0.00;0.00;;;;;;;10.26;64.47;102991.44;10575752;28;20600;-78
2022/04/28 20:44:19;;;;;;;0.20;0.20;;;;;;;9.99;64.85;103001.84;10576501;28;20092;-78
2022/04/28 20:49:20;;;;;;;0.00;0.00;;;;;;;10.00;64.74;102996.78;10570566;28;20092;-78
2022/04/28 20:54:23;;;;;;;5.60;1.10;;;;;;;9.87;65.14;103001.06;10539114;28;20082;-78
2022/04/28 20:59:25;;;;;;;0.60;0.60;;;;;;;9.79;65.71;103003.19;10543029;28;20395;-77
2022/04/28 21:04:27;;;;;;;0.50;0.50;;;;;;;9.77;65.45;103004.75;10555635;28;20058;-78
2022/04/28 21:09:29;;;;;;;0.52;0.50;;;;;;;9.75;65.40;103012.38;10536043;28;20048;-78
2022/04/28 21:14:33;;;;;;;1.27;0.77;;;;;;;9.65;66.12;103010.00;10538454;28;20040;-78
2022/04/28 21:19:34;;;;;;;0.10;0.10;;;;;;;9.47;66.62;103004.59;10538201;28;20050;-77
2022/04/28 21:24:36;;;;;;;5.35;1.52;;;;;;;9.41;66.34;103005.09;10537021;28;20044;-77
2022/04/28 21:29:38;;;;;;;0.00;0.00;;;;;;;9.28;67.80;103012.78;10536942;28;20051;-77
2022/04/28 21:34:41;;;;;;;0.00;0.00;;;;;;;9.25;67.91;103007.47;10535480;28;20123;-78
2022/04/28 21:39:42;;;;;;;0.00;0.00;;;;;;;9.08;68.21;103007.25;10537726;28;20139;-78
2022/04/28 21:44:47;;;;;;;0.10;0.10;;;;;;;8.89;68.16;103007.72;10536194;28;20040;-78
2022/04/28 21:49:49;;;;;;;0.55;0.55;;;;;;;8.86;68.21;103018.69;10567135;28;20039;-78
2022/04/28 21:54:53;;;;;;;1.00;0.50;;;;;;;8.81;68.54;103012.34;10567123;28;20454;-79
2022/04/28 21:59:57;;;;;;;0.80;0.50;;;;;;;8.73;68.29;103008.38;10546227;28;20048;-78
2022/04/28 22:15:40;;;;;;;0.32;0.30;;;;;;;8.47;69.45;103020.31;10529656;28;20046;-78
2022/04/28 22:20:41;;;;;;;1.20;0.75;;;;;;;8.25;69.59;103016.25;10517622;28;20043;-77
2022/04/28 22:25:43;;;;;;;1.27;1.17;;;;;;;8.19;69.43;103023.53;10501915;28;20064;-77
2022/04/28 22:30:47;;;;;;;0.22;0.22;;;;;;;8.13;69.45;103012.84;10528984;28;20561;-78
2022/04/28 22:35:50;;;;;;;0.10;0.10;;;;;;;8.01;70.14;103006.81;10508039;28;20458;-78
2022/04/28 22:40:52;;;;;;;0.03;0.03;;;;;;;8.05;69.68;103011.41;10508302;28;20070;-79
2022/04/28 22:45:53;;;;;;;0.00;0.00;;;;;;;7.96;69.78;103015.88;10532541;28;20102;-78
2022/04/28 22:50:55;;;;;;;0.00;0.00;;;;;;;7.86;70.34;103015.22;10534025;28;20072;-78
2022/04/28 22:56:16;;;;;;;0.00;0.00;;;;;;;7.89;70.39;103014.56;10534126;28;20518;-78
2022/04/28 23:01:18;;;;;;;0.03;0.03;;;;;;;7.82;70.80;103013.22;10533246;28;20427;-77
2022/04/28 23:06:20;;;;;;;0.45;0.28;;;;;;;7.71;69.89;103024.38;10533847;28;20147;-78
2022/04/28 23:11:21;;;;;;;0.10;0.10;;;;;;;7.67;71.04;103037.78;10533288;28;20032;-77
2022/04/28 23:16:23;;;;;;;0.75;0.45;;;;;;;7.47;71.43;103032.13;10533432;28;20052;-77
2022/04/28 23:21:24;;;;;;;0.00;0.00;;;;;;;7.39;71.60;103020.41;10532674;28;20052;-78
2022/04/28 23:26:26;;;;;;;0.00;0.00;;;;;;;7.40;71.47;103023.06;10533848;28;20145;-78
2022/04/28 23:31:28;;;;;;;0.13;0.13;;;;;;;7.37;71.24;103014.25;10533041;28;20463;-77
2022/04/28 23:47:10;;;;;;;1.17;0.45;;;;;;;7.22;72.58;103011.50;10533257;28;20039;-77
2022/04/28 23:52:12;;;;;;;0.00;0.00;;;;;;;7.09;72.03;103023.38;10539021;28;20502;-77
2022/04/28 23:57:14;;;;;;;0.08;0.08;;;;;;;7.12;72.07;103017.59;10540825;28;20112;-78
